Time;durP1;ratioP1;P1;durP2;ratioP2;P2;SDS_P1;SDS_P2;PMS_P1;PMS_P2;Temp;Humidity;BMP_temperature;BMP_pressure;BME280_temperature;BME280_humidity;BME280_pressure;Samples;Min_cycle;Max_cycle;Signal;HPM_P1;HPM_P2
2022/08/09 00:02:23;;;;;;;0.70;0.68;;;23.80;58.10;;;;;;4985074;28;20027;-18
2022/08/09 00:04:49;;;;;;;1.35;1.05;;;23.70;58.00;;;;;;4986679;28;20076;-18
2022/08/09 00:07:15;;;;;;;1.17;0.70;;;23.70;57.60;;;;;;4987446;28;20046;-18
2022/08/09 00:09:40;;;;;;;0.52;0.52;;;23.70;58.20;;;;;;4988846;28;20407;-21
2022/08/09 00:12:07;;;;;;;0.90;0.70;;;23.70;57.90;;;;;;4988365;28;20050;-18
2022/08/09 00:14:32;;;;;;;0.65;0.52;;;23.70;58.10;;;;;;4991441;28;20042;-19
2022/08/09 00:16:58;;;;;;;0.52;0.52;;;23.60;57.80;;;;;;4988428;28;20270;-18
2022/08/09 00:19:24;;;;;;;0.40;0.40;;;23.60;58.00;;;;;;4992649;28;20031;-18
2022/08/09 00:21:49;;;;;;;0.80;0.70;;;23.60;57.90;;;;;;4987500;28;20041;-18
2022/08/09 00:24:15;;;;;;;0.55;0.55;;;23.60;58.20;;;;;;4984414;28;20035;-18
2022/08/09 00:26:41;;;;;;;0.93;0.63;;;23.60;58.00;;;;;;4987799;28;20093;-18
2022/08/09 00:29:07;;;;;;;0.50;0.50;;;23.60;58.30;;;;;;4989517;28;20116;-18
2022/08/09 00:31:32;;;;;;;1.23;0.55;;;23.60;58.30;;;;;;4989285;28;20053;-18
2022/08/09 00:33:58;;;;;;;2.90;0.95;;;23.60;58.40;;;;;;4984999;28;20031;-18
2022/08/09 00:36:24;;;;;;;0.47;0.47;;;23.60;58.10;;;;;;4987401;28;20045;-24
2022/08/09 00:38:49;;;;;;;0.75;0.70;;;23.60;57.90;;;;;;4984647;28;20385;-18
2022/08/09 00:41:15;;;;;;;0.50;0.45;;;23.60;57.80;;;;;;4987788;28;20054;-22
2022/08/09 00:43:41;;;;;;;0.52;0.52;;;23.60;58.00;;;;;;4984907;28;20062;-19
2022/08/09 00:46:08;;;;;;;0.50;0.50;;;23.60;58.90;;;;;;4987959;28;20057;-18
2022/08/09 00:48:34;;;;;;;1.58;0.52;;;23.60;58.00;;;;;;4984003;28;20034;-18
2022/08/09 00:51:02;;;;;;;0.80;0.65;;;23.50;58.00;;;;;;4985467;28;20053;-18
2022/08/09 00:53:27;;;;;;;0.80;0.80;;;23.50;58.00;;;;;;5020764;28;20125;-18
2022/08/09 00:55:53;;;;;;;0.50;0.50;;;23.50;58.10;;;;;;4986172;28;20663;-19
2022/08/09 00:58:18;;;;;;;0.45;0.45;;;23.60;57.90;;;;;;4988978;28;20508;-19
2022/08/09 01:00:44;;;;;;;0.40;0.40;;;23.60;57.90;;;;;;4984449;28;20408;-19
2022/08/09 01:03:34;;;;;;;0.40;0.40;;;23.50;58.00;;;;;;5019497;28;20035;-18
2022/08/09 01:06:18;;;;;;;0.90;0.90;;;23.60;58.10;;;;;;4978373;28;20043;-18
2022/08/09 01:08:54;;;;;;;1.10;0.60;;;23.50;58.10;;;;;;5015378;28;20030;-18
2022/08/09 01:11:26;;;;;;;1.13;0.68;;;23.50;58.00;;;;;;5006863;28;20042;-21
2022/08/09 01:14:36;;;;;;;0.47;0.47;;;23.50;57.80;;;;;;4990571;28;20034;-18
2022/08/09 01:17:07;;;;;;;0.43;0.43;;;23.50;58.10;;;;;;4944721;29;20035;-19
2022/08/09 01:19:53;;;;;;;0.43;0.30;;;23.50;58.10;;;;;;4948215;28;20031;-18
2022/08/09 01:22:34;;;;;;;0.65;0.45;;;23.50;58.00;;;;;;4932484;29;20082;-22
2022/08/09 01:25:04;;;;;;;0.50;0.50;;;23.50;58.00;;;;;;4943699;29;20047;-18
2022/08/09 01:27:29;;;;;;;0.65;0.50;;;23.50;57.90;;;;;;4928094;29;20043;-18
2022/08/09 01:30:03;;;;;;;0.60;0.52;;;23.50;58.00;;;;;;4914531;29;20531;-19
2022/08/09 01:32:31;;;;;;;0.57;0.47;;;23.50;58.00;;;;;;4930503;29;20229;-18
2022/08/09 01:34:57;;;;;;;0.93;0.40;;;23.50;58.10;;;;;;4947330;29;20207;-19
2022/08/09 01:37:23;;;;;;;0.50;0.50;;;23.50;58.10;;;;;;4930483;29;20047;-18
2022/08/09 01:39:49;;;;;;;0.68;0.68;;;23.50;57.90;;;;;;4947684;28;20599;-19
2022/08/09 01:42:14;;;;;;;0.60;0.60;;;23.50;58.00;;;;;;4928019;29;20103;-18
2022/08/09 01:44:41;;;;;;;0.40;0.40;;;23.50;58.00;;;;;;4945787;28;20043;-18
2022/08/09 01:47:06;;;;;;;2.13;0.60;;;23.50;58.00;;;;;;4947144;29;20032;-18
2022/08/09 01:49:34;;;;;;;1.40;0.73;;;23.50;58.10;;;;;;4948917;28;20042;-19
2022/08/09 01:52:02;;;;;;;0.50;0.50;;;23.50;58.00;;;;;;4966890;28;20127;-18
2022/08/09 01:54:50;;;;;;;0.43;0.43;;;23.50;58.20;;;;;;4987601;28;20038;-19
2022/08/09 01:57:20;;;;;;;0.45;0.45;;;23.50;58.30;;;;;;4987159;28;20113;-19
2022/08/09 01:59:46;;;;;;;0.47;0.40;;;23.40;58.00;;;;;;4986471;28;20034;-19
2022/08/09 02:02:12;;;;;;;0.50;0.38;;;23.40;58.00;;;;;;5003869;28;20062;-18
2022/08/09 02:04:38;;;;;;;0.45;0.40;;;23.50;58.10;;;;;;5021271;28;20140;-20
2022/08/09 02:07:07;;;;;;;0.30;0.30;;;23.40;58.10;;;;;;4983654;28;20045;-18
2022/08/09 02:09:41;;;;;;;0.80;0.40;;;23.40;58.30;;;;;;4985335;28;20058;-21
2022/08/09 02:12:08;;;;;;;;;;;23.40;58.20;;;;;;4986089;28;20460;-18
2022/08/09 02:14:35;;;;;;;0.40;0.40;;;23.40;58.30;;;;;;4987457;28;19909;-18
2022/08/09 02:17:00;;;;;;;0.52;0.35;;;23.40;58.30;;;;;;4987350;28;20084;-18
2022/08/09 02:19:26;;;;;;;0.30;0.30;;;23.40;58.10;;;;;;5020012;28;20058;-19
2022/08/09 02:21:54;;;;;;;0.60;0.60;;;23.40;58.00;;;;;;4981009;28;20034;-18
2022/08/09 02:24:23;;;;;;;0.80;0.55;;;23.40;58.30;;;;;;4981689;28;20031;-19
2022/08/09 02:26:49;;;;;;;0.75;0.50;;;23.40;58.40;;;;;;5000296;28;20062;-19
2022/08/09 02:29:25;;;;;;;1.35;0.40;;;23.40;58.30;;;;;;4983445;28;20392;-18
2022/08/09 02:31:51;;;;;;;0.82;0.50;;;23.40;58.30;;;;;;5005492;28;20515;-18
2022/08/09 02:34:19;;;;;;;0.60;0.60;;;23.40;58.10;;;;;;5016905;28;20041;-19
2022/08/09 02:36:47;;;;;;;0.70;0.70;;;23.40;58.40;;;;;;4984926;28;20041;-20
2022/08/09 02:39:18;;;;;;;0.30;0.30;;;23.40;58.30;;;;;;4982968;28;20058;-18
2022/08/09 02:41:48;;;;;;;0.50;0.50;;;23.40;58.30;;;;;;4986169;28;20049;-18
2022/08/09 02:44:15;;;;;;;0.60;0.60;;;23.40;58.20;;;;;;4986654;28;20039;-18
2022/08/09 02:46:41;;;;;;;1.33;0.88;;;23.40;58.30;;;;;;4985816;28;20042;-19
2022/08/09 02:49:09;;;;;;;1.10;0.57;;;23.40;58.00;;;;;;4980410;28;20048;-17
2022/08/09 02:51:36;;;;;;;0.50;0.50;;;23.40;58.10;;;;;;4987253;28;20559;-18
2022/08/09 02:54:02;;;;;;;0.45;0.45;;;23.40;58.10;;;;;;4985393;28;20042;-17
2022/08/09 02:56:28;;;;;;;0.50;0.50;;;23.40;58.30;;;;;;5014596;28;20046;-18
2022/08/09 02:58:54;;;;;;;0.50;0.50;;;23.30;58.70;;;;;;4985777;28;20058;-19
2022/08/09 03:01:20;;;;;;;0.50;0.45;;;23.30;58.10;;;;;;5017034;28;20080;-18
2022/08/09 03:03:46;;;;;;;0.60;0.40;;;23.40;58.10;;;;;;4986584;28;20044;-21
2022/08/09 03:06:13;;;;;;;1.08;0.60;;;23.30;58.30;;;;;;4986117;28;20030;-18
2022/08/09 03:08:43;;;;;;;0.43;0.30;;;23.30;58.30;;;;;;4985330;28;20034;-18
2022/08/09 03:11:09;;;;;;;0.50;0.50;;;23.30;58.40;;;;;;4998279;28;20459;-23
2022/08/09 03:13:34;;;;;;;0.52;0.50;;;23.30;58.40;;;;;;4987122;28;20042;-19
2022/08/09 03:16:00;;;;;;;0.63;0.63;;;23.30;58.30;;;;;;4980274;28;20030;-24
2022/08/09 03:18:25;;;;;;;0.40;0.40;;;23.30;58.40;;;;;;4983818;28;20132;-18
2022/08/09 03:20:51;;;;;;;0.57;0.40;;;23.30;58.20;;;;;;4996873;28;20156;-20
2022/08/09 03:23:17;;;;;;;0.40;0.40;;;23.30;58.30;;;;;;4996499;28;20047;-18
2022/08/09 03:25:43;;;;;;;0.43;0.43;;;23.30;58.00;;;;;;4983213;28;20517;-18
2022/08/09 03:28:08;;;;;;;0.35;0.35;;;23.30;58.00;;;;;;4983716;28;20035;-18
2022/08/09 03:30:34;;;;;;;0.55;0.50;;;23.30;58.30;;;;;;4980837;28;20050;-19
2022/08/09 03:33:01;;;;;;;0.50;0.50;;;23.30;58.20;;;;;;4983891;28;20454;-18
2022/08/09 03:35:26;;;;;;;0.50;0.50;;;23.30;58.20;;;;;;4985942;28;20038;-17
2022/08/09 03:37:52;;;;;;;0.60;0.60;;;23.30;58.30;;;;;;5018325;28;20053;-19
2022/08/09 03:40:17;;;;;;;0.32;0.30;;;23.30;58.30;;;;;;5015370;28;20515;-19
2022/08/09 03:42:43;;;;;;;0.50;0.50;;;23.30;58.30;;;;;;4982302;28;20042;-18
2022/08/09 03:45:09;;;;;;;0.55;0.55;;;23.30;58.30;;;;;;4983273;28;20045;-18
2022/08/09 03:47:35;;;;;;;0.43;0.43;;;23.30;57.90;;;;;;4983579;28;20046;-19
2022/08/09 03:50:01;;;;;;;0.40;0.40;;;23.20;58.30;;;;;;4984326;28;20511;-25
2022/08/09 03:52:27;;;;;;;0.50;0.50;;;23.20;58.00;;;;;;5016077;28;20579;-18
2022/08/09 03:54:52;;;;;;;0.57;0.57;;;23.20;58.20;;;;;;4984927;28;20041;-21
2022/08/09 03:57:18;;;;;;;1.00;0.60;;;23.20;58.30;;;;;;4966474;28;20076;-18
2022/08/09 03:59:43;;;;;;;0.63;0.50;;;23.20;58.10;;;;;;5017005;28;20039;-19
2022/08/09 04:02:09;;;;;;;0.57;0.57;;;23.20;58.30;;;;;;4985971;28;20122;-18
2022/08/09 04:04:35;;;;;;;0.40;0.40;;;23.20;58.40;;;;;;4987019;28;20038;-18
2022/08/09 04:07:00;;;;;;;0.55;0.55;;;23.20;58.50;;;;;;4984192;28;20050;-18
2022/08/09 04:09:26;;;;;;;0.60;0.60;;;23.20;58.40;;;;;;4984013;28;20065;-19
2022/08/09 04:12:08;;;;;;;0.40;0.40;;;23.20;58.20;;;;;;4985515;28;20573;-21
2022/08/09 04:14:33;;;;;;;0.45;0.45;;;23.20;58.40;;;;;;4984851;28;20527;-20
2022/08/09 04:16:59;;;;;;;0.85;0.43;;;23.20;58.30;;;;;;4981309;28;20073;-27
2022/08/09 04:19:25;;;;;;;0.50;0.50;;;23.20;58.40;;;;;;4979351;28;20133;-18
2022/08/09 04:21:50;;;;;;;0.70;0.70;;;23.20;58.10;;;;;;4984367;28;20039;-19
2022/08/09 04:24:16;;;;;;;0.60;0.60;;;23.20;58.30;;;;;;4983198;28;20034;-18
2022/08/09 04:26:41;;;;;;;0.47;0.47;;;23.20;58.10;;;;;;4983224;28;20046;-21
2022/08/09 04:29:07;;;;;;;0.40;0.40;;;23.20;58.40;;;;;;4984563;28;20046;-19
2022/08/09 04:31:33;;;;;;;0.40;0.40;;;23.10;58.30;;;;;;4982849;28;20058;-25
2022/08/09 04:33:58;;;;;;;0.45;0.40;;;23.20;58.80;;;;;;4981993;28;20039;-18
2022/08/09 04:36:27;;;;;;;0.40;0.40;;;23.20;58.10;;;;;;4982395;28;20063;-20
2022/08/09 04:38:54;;;;;;;0.43;0.43;;;23.20;58.40;;;;;;4979755;28;20055;-19
2022/08/09 04:41:20;;;;;;;0.40;0.40;;;23.20;57.90;;;;;;4979512;28;20073;-18
2022/08/09 04:43:46;;;;;;;0.75;0.75;;;23.20;58.10;;;;;;4986774;28;20538;-18
2022/08/09 04:46:12;;;;;;;0.40;0.40;;;23.20;58.00;;;;;;4982401;28;20042;-20
2022/08/09 04:48:37;;;;;;;0.60;0.60;;;23.10;58.10;;;;;;4984014;28;20489;-20
2022/08/09 04:51:03;;;;;;;0.63;0.50;;;23.20;58.30;;;;;;4984362;28;20041;-19
2022/08/09 04:53:28;;;;;;;0.40;0.40;;;23.10;58.10;;;;;;4983876;28;20133;-18
2022/08/09 04:55:54;;;;;;;0.50;0.50;;;23.20;58.10;;;;;;4987173;28;20499;-19
2022/08/09 04:58:19;;;;;;;0.40;0.35;;;23.20;58.70;;;;;;4985761;28;20058;-18
2022/08/09 05:00:45;;;;;;;0.52;0.52;;;23.10;58.20;;;;;;4989083;28;20069;-19
2022/08/09 05:03:10;;;;;;;0.47;0.47;;;23.10;57.90;;;;;;4986787;28;20451;-18
2022/08/09 05:05:37;;;;;;;0.40;0.40;;;23.10;58.10;;;;;;4987437;28;20063;-19
2022/08/09 05:08:02;;;;;;;0.50;0.50;;;23.20;58.40;;;;;;4990304;28;20419;-18
2022/08/09 05:10:28;;;;;;;1.50;1.05;;;23.30;58.40;;;;;;4988385;28;20522;-21
2022/08/09 05:12:53;;;;;;;2.65;0.90;;;22.90;57.50;;;;;;4983481;28;20419;-22
2022/08/09 05:15:19;;;;;;;0.80;0.80;;;22.60;57.60;;;;;;4984409;28;20471;-18
2022/08/09 05:17:45;;;;;;;1.10;0.98;;;22.20;58.00;;;;;;4988729;28;20597;-18
2022/08/09 05:20:10;;;;;;;0.82;0.70;;;22.10;58.30;;;;;;4985964;28;20504;-19
2022/08/09 05:22:36;;;;;;;1.58;0.88;;;22.00;58.70;;;;;;4990036;28;20042;-19
2022/08/09 05:25:02;;;;;;;1.27;0.73;;;22.00;58.40;;;;;;4984368;28;20066;-18
2022/08/09 05:27:28;;;;;;;0.95;0.95;;;21.90;58.70;;;;;;4982058;28;20051;-22
2022/08/09 05:29:54;;;;;;;1.98;1.05;;;21.80;58.90;;;;;;4986608;28;20054;-20
2022/08/09 05:32:20;;;;;;;1.50;1.40;;;21.80;58.90;;;;;;4984657;28;20435;-18
2022/08/09 05:34:46;;;;;;;1.17;0.82;;;21.80;59.20;;;;;;4987248;28;20048;-19
2022/08/09 05:37:11;;;;;;;1.67;1.25;;;21.70;59.30;;;;;;4985641;28;20121;-17
2022/08/09 05:39:38;;;;;;;0.95;0.90;;;21.60;59.50;;;;;;4987629;28;20117;-18
2022/08/09 05:42:03;;;;;;;1.58;1.35;;;21.50;59.70;;;;;;4988010;28;20035;-20
2022/08/09 05:44:29;;;;;;;0.90;0.90;;;21.40;60.10;;;;;;4986550;28;20085;-20
2022/08/09 05:46:55;;;;;;;1.13;1.02;;;21.40;60.30;;;;;;4989411;28;20050;-18
2022/08/09 05:49:20;;;;;;;2.63;1.20;;;21.40;60.60;;;;;;4986731;28;20425;-19
2022/08/09 05:51:46;;;;;;;1.65;1.50;;;21.30;60.90;;;;;;4986957;28;20121;-19
2022/08/09 05:54:11;;;;;;;3.75;1.23;;;21.10;61.20;;;;;;4988641;28;20041;-18
2022/08/09 05:56:37;;;;;;;1.40;1.40;;;21.20;61.20;;;;;;4988657;28;20125;-18
2022/08/09 05:59:02;;;;;;;1.23;1.13;;;21.10;61.70;;;;;;4987977;28;20046;-18
2022/08/09 06:01:28;;;;;;;1.42;1.00;;;21.10;61.60;;;;;;4987403;28;21186;-18
2022/08/09 06:03:55;;;;;;;1.20;1.05;;;21.10;61.70;;;;;;4987693;28;20492;-19
2022/08/09 06:06:20;;;;;;;1.30;1.02;;;21.10;61.80;;;;;;4985378;28;20039;-18
2022/08/09 06:08:46;;;;;;;1.05;1.05;;;21.10;61.80;;;;;;4985432;28;20047;-19
2022/08/09 06:11:12;;;;;;;1.27;1.17;;;21.10;62.30;;;;;;4989639;28;20035;-19
2022/08/09 06:13:38;;;;;;;1.42;1.00;;;21.00;62.40;;;;;;4988450;28;20046;-18
2022/08/09 06:16:04;;;;;;;1.55;1.10;;;21.10;62.30;;;;;;4987316;28;20573;-18
2022/08/09 06:18:29;;;;;;;1.80;0.98;;;21.00;62.40;;;;;;4986157;28;20058;-20
2022/08/09 06:20:55;;;;;;;1.25;1.10;;;21.00;62.60;;;;;;4987225;28;20039;-19
2022/08/09 06:23:24;;;;;;;1.25;1.15;;;20.90;63.20;;;;;;5017672;28;20078;-18
2022/08/09 06:25:50;;;;;;;1.77;1.20;;;20.90;63.20;;;;;;4987783;28;20416;-25
2022/08/09 06:28:15;;;;;;;1.80;1.20;;;20.90;63.30;;;;;;4985080;28;20046;-20
2022/08/09 06:30:41;;;;;;;1.30;1.05;;;20.90;63.40;;;;;;4986519;28;20070;-19
2022/08/09 06:33:07;;;;;;;1.50;1.15;;;20.80;63.80;;;;;;4987399;28;20038;-19
2022/08/09 06:35:33;;;;;;;1.25;1.13;;;20.90;63.90;;;;;;4986300;28;20050;-18
2022/08/09 06:37:59;;;;;;;1.05;0.95;;;20.90;63.80;;;;;;4988169;28;20042;-19
2022/08/09 06:40:24;;;;;;;1.70;1.17;;;20.90;63.90;;;;;;4987204;28;20050;-27
2022/08/09 06:42:50;;;;;;;2.08;1.50;;;20.90;64.00;;;;;;4986315;28;20042;-18
2022/08/09 06:45:16;;;;;;;2.97;1.20;;;21.00;64.00;;;;;;4985816;28;20038;-19
2022/08/09 06:47:41;;;;;;;2.15;1.00;;;20.90;65.00;;;;;;4987915;28;20423;-19
2022/08/09 06:50:07;;;;;;;2.28;1.25;;;20.90;64.10;;;;;;4987985;28;20050;-18
2022/08/09 06:52:33;;;;;;;1.23;1.13;;;21.00;64.00;;;;;;4992435;28;20046;-18
2022/08/09 06:54:59;;;;;;;2.58;1.30;;;21.00;64.20;;;;;;4983810;28;20483;-18
2022/08/09 06:57:24;;;;;;;0.90;0.90;;;20.90;64.50;;;;;;4983599;28;20046;-18
2022/08/09 06:59:50;;;;;;;1.77;1.13;;;21.00;64.40;;;;;;4987359;28;20085;-18
2022/08/09 07:02:15;;;;;;;1.42;1.05;;;21.00;64.20;;;;;;4987217;28;20496;-18
2022/08/09 07:04:41;;;;;;;1.30;1.20;;;21.10;64.40;;;;;;4984637;28;20110;-18
2022/08/09 07:07:06;;;;;;;1.60;1.20;;;21.00;64.40;;;;;;4986657;28;20046;-25
2022/08/09 07:09:32;;;;;;;1.25;1.15;;;21.00;64.60;;;;;;4990244;28;20407;-19
2022/08/09 07:11:58;;;;;;;3.03;1.27;;;20.90;64.90;;;;;;4987086;28;20046;-18
2022/08/09 07:14:23;;;;;;;1.20;0.90;;;21.00;64.60;;;;;;4985064;28;20076;-18
2022/08/09 07:16:49;;;;;;;1.63;1.20;;;21.00;64.60;;;;;;4994737;28;20038;-18
2022/08/09 07:19:15;;;;;;;1.48;1.02;;;21.10;64.60;;;;;;4991496;28;20066;-19
2022/08/09 07:21:41;;;;;;;0.90;0.75;;;21.10;64.60;;;;;;4986734;28;20046;-19
2022/08/09 07:24:07;;;;;;;1.48;0.90;;;21.20;64.30;;;;;;4986774;28;20042;-19
2022/08/09 07:26:33;;;;;;;1.20;0.70;;;21.20;64.00;;;;;;4985946;28;20061;-20
2022/08/09 07:28:58;;;;;;;2.40;0.63;;;21.30;64.00;;;;;;4984412;28;20077;-18
2022/08/09 07:31:24;;;;;;;1.55;0.63;;;21.30;63.70;;;;;;4980667;28;20054;-18
2022/08/09 07:33:49;;;;;;;1.13;0.85;;;21.40;63.70;;;;;;4985510;28;20046;-19
2022/08/09 07:36:15;;;;;;;0.93;0.90;;;21.40;63.40;;;;;;4981586;28;20042;-25
2022/08/09 07:38:41;;;;;;;1.92;1.20;;;21.50;63.20;;;;;;4984769;28;20054;-18
2022/08/09 07:41:06;;;;;;;0.60;0.60;;;21.50;63.10;;;;;;4996930;28;20065;-18
2022/08/09 07:43:32;;;;;;;0.60;0.60;;;21.60;63.00;;;;;;4985728;28;20073;-19
2022/08/09 07:45:58;;;;;;;1.65;0.68;;;21.50;62.90;;;;;;4984100;28;20617;-19
2022/08/09 07:48:23;;;;;;;1.08;0.60;;;21.60;62.70;;;;;;4984567;28;20488;-20
2022/08/09 07:50:49;;;;;;;0.82;0.82;;;21.70;62.80;;;;;;4986516;28;20181;-18
2022/08/09 07:53:14;;;;;;;0.80;0.80;;;21.60;62.70;;;;;;4984052;28;20077;-18
2022/08/09 07:55:40;;;;;;;0.77;0.77;;;21.70;63.40;;;;;;4982210;28;20535;-18
2022/08/09 07:58:05;;;;;;;0.80;0.80;;;21.70;62.60;;;;;;4984625;28;20055;-18
2022/08/09 08:00:31;;;;;;;1.10;0.75;;;21.70;62.40;;;;;;4981268;28;20038;-19
2022/08/09 08:02:57;;;;;;;0.70;0.70;;;21.80;62.10;;;;;;4983820;28;20046;-20
2022/08/09 08:05:23;;;;;;;0.80;0.75;;;21.80;62.10;;;;;;4985853;28;20031;-19
2022/08/09 08:07:49;;;;;;;0.68;0.60;;;21.80;62.00;;;;;;4988328;28;20050;-19
2022/08/09 08:10:14;;;;;;;1.10;0.70;;;21.80;61.80;;;;;;4983431;28;20030;-19
2022/08/09 08:12:41;;;;;;;0.77;0.70;;;21.80;61.80;;;;;;4984615;28;20415;-18
2022/08/09 08:15:07;;;;;;;0.60;0.60;;;21.90;61.70;;;;;;4985430;28;20042;-19
2022/08/09 08:17:33;;;;;;;0.77;0.70;;;21.90;61.30;;;;;;4983946;28;20057;-21
2022/08/09 08:19:58;;;;;;;0.85;0.85;;;22.00;61.30;;;;;;4984519;28;20042;-19
2022/08/09 08:22:24;;;;;;;0.70;0.70;;;22.00;61.10;;;;;;4985298;28;20125;-20
2022/08/09 08:24:54;;;;;;;0.88;0.88;;;22.10;60.90;;;;;;4985160;28;20597;-19
2022/08/09 08:27:23;;;;;;;0.77;0.77;;;22.10;60.70;;;;;;4981579;28;20043;-19
2022/08/09 08:29:50;;;;;;;0.93;0.70;;;22.20;60.70;;;;;;4989543;28;20043;-19
2022/08/09 08:32:16;;;;;;;0.60;0.60;;;22.20;60.60;;;;;;4630178;28;10000294;-19
2022/08/09 08:34:41;;;;;;;0.65;0.60;;;22.20;60.60;;;;;;4984485;28;20352;-20
2022/08/09 08:37:07;;;;;;;0.70;0.50;;;22.20;60.40;;;;;;4988343;28;20022;-19
2022/08/09 08:39:32;;;;;;;0.80;0.80;;;22.20;60.40;;;;;;4979940;28;20098;-21
2022/08/09 08:41:58;;;;;;;0.70;0.70;;;22.20;60.30;;;;;;4982361;28;20038;-19
2022/08/09 08:44:24;;;;;;;0.60;0.60;;;22.30;60.20;;;;;;5014508;28;20537;-19
2022/08/09 08:46:49;;;;;;;0.80;0.70;;;22.30;60.30;;;;;;5016118;28;20044;-20
2022/08/09 08:49:15;;;;;;;0.52;0.52;;;22.30;60.20;;;;;;5013782;28;20522;-20
2022/08/09 08:51:40;;;;;;;1.70;0.80;;;22.30;60.10;;;;;;4981763;28;20038;-19
2022/08/09 08:54:06;;;;;;;0.60;0.60;;;22.30;60.20;;;;;;4982806;28;20076;-19
2022/08/09 08:56:35;;;;;;;0.50;0.50;;;22.30;60.10;;;;;;4980429;28;20117;-20
2022/08/09 08:59:05;;;;;;;0.68;0.68;;;22.30;60.00;;;;;;4977302;28;20089;-19
2022/08/09 09:01:31;;;;;;;0.98;0.47;;;22.40;60.10;;;;;;4988782;28;20054;-19
2022/08/09 09:03:57;;;;;;;1.27;0.57;;;22.40;60.20;;;;;;4998272;28;20118;-20
2022/08/09 09:06:23;;;;;;;0.60;0.60;;;22.40;60.30;;;;;;5016546;28;20121;-19
2022/08/09 09:08:48;;;;;;;0.52;0.52;;;22.40;60.20;;;;;;4996863;28;20868;-19
2022/08/09 09:11:14;;;;;;;0.70;0.70;;;22.40;60.30;;;;;;4999226;28;20034;-19
2022/08/09 09:13:40;;;;;;;0.70;0.50;;;22.40;60.50;;;;;;4984017;28;20027;-19
2022/08/09 09:16:07;;;;;;;0.60;0.60;;;22.40;60.20;;;;;;4984992;28;20042;-19
2022/08/09 09:18:33;;;;;;;0.60;0.60;;;22.50;60.30;;;;;;4980906;28;20137;-19
2022/08/09 09:20:58;;;;;;;0.95;0.57;;;22.50;60.00;;;;;;4978205;28;20034;-19
2022/08/09 09:23:41;;;;;;;0.70;0.70;;;22.50;60.10;;;;;;4979953;28;20030;-19
2022/08/09 09:26:07;;;;;;;0.95;0.85;;;22.50;59.90;;;;;;4979667;28;20034;-20
2022/08/09 09:28:33;;;;;;;0.47;0.45;;;22.60;60.50;;;;;;4983832;28;20108;-20
2022/08/09 09:31:00;;;;;;;0.60;0.60;;;22.60;60.60;;;;;;4981948;28;20137;-19
2022/08/09 09:33:33;;;;;;;3.47;0.75;;;22.60;60.50;;;;;;4981799;28;20113;-20
2022/08/09 09:36:06;;;;;;;1.85;0.80;;;22.70;61.00;;;;;;4982613;28;20456;-20
2022/08/09 09:38:48;;;;;;;2.43;0.70;;;22.70;60.90;;;;;;4982787;28;20034;-20
2022/08/09 09:41:25;;;;;;;0.77;0.50;;;22.70;60.70;;;;;;4984917;28;20122;-20
2022/08/09 09:43:51;;;;;;;1.60;0.60;;;22.70;60.70;;;;;;4982060;28;20407;-22
2022/08/09 09:46:17;;;;;;;1.30;0.60;;;22.80;60.80;;;;;;4978939;28;20066;-20
2022/08/09 09:49:04;;;;;;;1.20;0.47;;;22.80;61.00;;;;;;4981465;28;20126;-20
2022/08/09 09:51:30;;;;;;;1.70;0.57;;;22.80;60.90;;;;;;4978671;28;20760;-19
2022/08/09 09:54:06;;;;;;;0.68;0.65;;;22.80;60.70;;;;;;4981973;28;20050;-19
2022/08/09 09:56:32;;;;;;;0.50;0.50;;;22.80;60.50;;;;;;4980796;28;20085;-20
2022/08/09 09:58:58;;;;;;;0.77;0.50;;;22.90;60.30;;;;;;4983535;28;20057;-19
2022/08/09 10:01:24;;;;;;;0.65;0.53;;;22.90;60.00;;;;;;4637617;28;10001190;-19
2022/08/09 10:03:50;;;;;;;0.95;0.55;;;22.90;59.90;;;;;;4976358;28;20862;-21
2022/08/09 10:06:16;;;;;;;1.13;0.68;;;22.90;59.60;;;;;;4977934;28;20423;-19
2022/08/09 10:08:42;;;;;;;0.60;0.60;;;22.90;60.50;;;;;;4982053;28;20530;-19
2022/08/09 10:11:25;;;;;;;0.47;0.47;;;23.00;59.90;;;;;;4983566;28;20162;-19
2022/08/09 10:13:52;;;;;;;1.00;0.60;;;23.00;59.80;;;;;;4979967;28;20046;-20
2022/08/09 10:16:30;;;;;;;0.65;0.40;;;23.00;59.40;;;;;;4979860;28;20049;-19
2022/08/09 10:18:58;;;;;;;1.35;0.65;;;23.00;59.30;;;;;;4979680;28;20046;-22
2022/08/09 10:21:24;;;;;;;0.68;0.68;;;23.00;59.40;;;;;;4978786;28;20089;-21
2022/08/09 10:23:50;;;;;;;0.50;0.50;;;23.00;59.30;;;;;;4982480;28;20498;-19
2022/08/09 10:26:16;;;;;;;1.05;0.60;;;23.00;59.10;;;;;;4981615;28;20258;-19
2022/08/09 10:28:42;;;;;;;3.63;0.52;;;23.10;59.10;;;;;;4982169;28;20145;-20
2022/08/09 10:31:08;;;;;;;1.45;0.40;;;23.10;59.00;;;;;;4981186;28;20519;-19
2022/08/09 10:33:34;;;;;;;1.00;0.50;;;23.10;59.00;;;;;;5012962;28;20042;-20
2022/08/09 10:36:00;;;;;;;0.60;0.60;;;23.10;59.10;;;;;;4979333;28;20058;-19
2022/08/09 10:38:26;;;;;;;1.15;0.60;;;23.10;59.20;;;;;;5006601;28;20146;-19
2022/08/09 10:40:51;;;;;;;0.65;0.65;;;23.20;59.10;;;;;;4980943;28;20058;-19
2022/08/09 10:43:17;;;;;;;1.60;0.80;;;23.20;58.90;;;;;;4658023;28;10000135;-18
2022/08/09 10:45:43;;;;;;;0.75;0.50;;;23.20;59.20;;;;;;5008121;28;20046;-19
2022/08/09 10:48:14;;;;;;;1.83;0.50;;;23.20;59.80;;;;;;4977759;28;20050;-19
2022/08/09 10:53:49;;;;;;;1.70;0.82;;;23.20;58.90;;;;;;5006472;28;20827;-19
2022/08/09 10:56:25;;;;;;;0.55;0.50;;;23.20;58.80;;;;;;4630437;28;10000406;-21
2022/08/09 10:58:51;;;;;;;0.75;0.68;;;23.20;58.60;;;;;;4979323;28;20066;-19
2022/08/09 11:01:32;;;;;;;0.70;0.70;;;23.20;58.80;;;;;;5009043;28;20519;-23
2022/08/09 11:04:11;;;;;;;0.40;0.40;;;23.20;58.60;;;;;;4979862;28;20050;-19
2022/08/09 11:06:37;;;;;;;0.68;0.68;;;23.20;58.70;;;;;;4975984;28;20539;-19
2022/08/09 11:09:03;;;;;;;0.60;0.60;;;23.30;59.00;;;;;;4975423;28;20053;-19
2022/08/09 11:11:54;;;;;;;0.95;0.70;;;23.30;58.80;;;;;;4977531;28;20150;-20
2022/08/09 11:14:34;;;;;;;1.02;0.50;;;23.30;59.10;;;;;;4978274;28;20132;-20
2022/08/09 11:17:00;;;;;;;1.95;0.65;;;23.30;58.90;;;;;;4978302;28;20070;-20
2022/08/09 11:19:45;;;;;;;0.50;0.50;;;23.30;59.10;;;;;;4978096;28;20050;-19
2022/08/09 11:22:10;;;;;;;0.60;0.60;;;23.30;59.20;;;;;;4977780;28;20905;-19
2022/08/09 11:25:05;;;;;;;0.70;0.60;;;23.30;58.70;;;;;;4976771;28;20046;-19
2022/08/09 11:27:35;;;;;;;;;;;23.30;59.20;;;;;;4977530;28;20058;-20
2022/08/09 11:30:01;;;;;;;0.70;0.70;;;23.30;59.20;;;;;;4976486;28;19926;-19
2022/08/09 11:32:42;;;;;;;0.63;0.63;;;23.40;59.20;;;;;;5008755;28;20057;-19
2022/08/09 11:35:24;;;;;;;0.60;0.60;;;23.40;59.30;;;;;;4976075;28;20408;-20
2022/08/09 11:37:51;;;;;;;0.50;0.50;;;23.40;59.30;;;;;;4978814;28;20050;-20
2022/08/09 11:40:28;;;;;;;0.50;0.50;;;23.40;59.30;;;;;;4978837;28;20054;-20
2022/08/09 11:42:55;;;;;;;0.45;0.45;;;23.40;59.30;;;;;;4977226;28;20508;-19
2022/08/09 11:45:31;;;;;;;0.75;0.63;;;23.40;59.30;;;;;;4977961;28;20050;-20
2022/08/09 11:47:59;;;;;;;0.52;0.52;;;23.40;59.30;;;;;;4975356;28;20042;-19
2022/08/09 11:50:26;;;;;;;0.70;0.70;;;23.40;59.30;;;;;;4977498;28;20074;-20
2022/08/09 11:52:57;;;;;;;1.58;0.65;;;23.40;59.30;;;;;;4629643;28;10000432;-24
2022/08/09 11:55:32;;;;;;;0.63;0.63;;;23.50;59.00;;;;;;4982246;28;20046;-18
2022/08/09 11:58:02;;;;;;;0.60;0.60;;;23.40;59.30;;;;;;4981240;28;20034;-20
2022/08/09 12:00:30;;;;;;;0.55;0.52;;;23.50;59.20;;;;;;4980200;28;20050;-19
2022/08/09 12:02:56;;;;;;;0.47;0.47;;;23.50;59.20;;;;;;4634698;28;10000347;-19
2022/08/09 12:05:29;;;;;;;0.50;0.50;;;23.50;59.20;;;;;;4974221;28;20052;-19
2022/08/09 12:07:54;;;;;;;0.70;0.55;;;23.50;59.30;;;;;;5008076;28;21418;-20
2022/08/09 12:10:22;;;;;;;0.50;0.50;;;23.50;59.90;;;;;;5011192;28;20044;-20
2022/08/09 12:12:47;;;;;;;0.40;0.40;;;23.50;59.20;;;;;;4977120;28;20050;-19
2022/08/09 12:15:23;;;;;;;0.50;0.50;;;23.50;59.30;;;;;;4975596;28;20042;-19
2022/08/09 12:17:50;;;;;;;1.77;0.60;;;23.60;59.20;;;;;;4976982;28;20145;-19
2022/08/09 12:20:17;;;;;;;0.80;0.80;;;23.50;59.30;;;;;;4971252;28;20031;-19
2022/08/09 12:22:43;;;;;;;0.95;0.70;;;23.60;59.10;;;;;;5006479;28;20775;-28
2022/08/09 12:25:13;;;;;;;0.70;0.50;;;23.60;59.10;;;;;;5006787;28;20474;-22
2022/08/09 12:27:39;;;;;;;0.60;0.60;;;23.60;59.10;;;;;;4970762;28;20034;-19
2022/08/09 12:30:06;;;;;;;0.60;0.45;;;23.60;59.70;;;;;;4970612;28;20775;-19
2022/08/09 12:32:31;;;;;;;0.70;0.70;;;23.60;58.70;;;;;;4975440;28;20042;-19
2022/08/09 12:34:59;;;;;;;0.98;0.50;;;23.70;58.80;;;;;;4973847;28;20042;-18
2022/08/09 12:37:35;;;;;;;1.13;0.70;;;23.70;59.10;;;;;;4972382;28;20039;-19
2022/08/09 12:40:07;;;;;;;1.10;0.60;;;23.70;59.10;;;;;;4971791;28;20050;-19
2022/08/09 12:42:33;;;;;;;0.70;0.70;;;23.70;59.10;;;;;;4975816;28;20042;-18
2022/08/09 12:44:58;;;;;;;0.60;0.60;;;23.70;59.20;;;;;;4972290;28;20065;-20
2022/08/09 12:47:24;;;;;;;0.73;0.65;;;23.70;59.20;;;;;;5005618;28;20065;-19
2022/08/09 12:52:40;;;;;;;;;;;23.80;59.40;;;;;;4986018;28;20407;-19
2022/08/09 12:55:08;;;;;;;0.82;0.63;;;23.80;59.20;;;;;;4971945;28;20590;-20
2022/08/09 12:57:45;;;;;;;2.17;0.50;;;23.80;59.30;;;;;;5009287;28;20050;-19